Terminal Aerodrome Forecast
Issued by NWS

Home | Current Version | Previous Version | Text Only | Print | Product List | Glossary On
Versions: 1 2 3 4 5 6 7 8 9 10 11 12 13 14 15 16 17 18 19 20 21 22
000
FTUS43 KGRR 270500
TAFAZO
TAF
KAZO 270525Z 2706/2806 00000KT P6SM SKC
     FM271000 36004KT 5SM BR SCT015
     FM271500 36007KT P6SM BKN150=

USA.gov is the U.S. government's official web portal to all federal, state and local government web resources and services.